Time;durP1;ratioP1;P1;durP2;ratioP2;P2;SDS_P1;SDS_P2;PMS_P1;PMS_P2;Temp;Humidity;BMP_temperature;BMP_pressure;BME280_temperature;BME280_humidity;BME280_pressure;Samples;Min_cycle;Max_cycle;Signal;HPM_P1;HPM_P2
2022/04/21 00:01:14;;;;;;;2.50;1.40;;;10.40;1.00;;;;;;5011625;28;20738;-72
2022/04/21 00:03:42;;;;;;;2.10;1.50;;;10.40;1.00;;;;;;5011796;28;20270;-76
2022/04/21 00:06:09;;;;;;;2.50;1.30;;;10.40;1.00;;;;;;5012529;28;20676;-72
2022/04/21 00:08:36;;;;;;;1.83;1.27;;;10.40;1.00;;;;;;5014104;28;20556;-71
2022/04/21 00:11:04;;;;;;;1.30;1.20;;;10.40;1.00;;;;;;5012927;28;20632;-71
2022/04/21 00:13:33;;;;;;;1.70;1.23;;;10.40;1.00;;;;;;5009830;28;20282;-71
2022/04/21 00:16:00;;;;;;;2.83;1.03;;;10.40;1.00;;;;;;5013985;28;20232;-71
2022/04/21 00:18:27;;;;;;;1.70;0.80;;;10.40;1.00;;;;;;5012781;28;20214;-74
2022/04/21 00:20:57;;;;;;;0.87;0.80;;;10.20;1.00;;;;;;5014162;28;20350;-72
2022/04/21 00:23:29;;;;;;;1.37;1.20;;;10.30;1.00;;;;;;5012207;28;20212;-74
2022/04/21 00:25:58;;;;;;;0.97;0.80;;;10.30;1.00;;;;;;5013212;28;20212;-74
2022/04/21 00:28:26;;;;;;;1.63;0.77;;;10.30;1.00;;;;;;5013937;28;20298;-75
2022/04/21 00:30:53;;;;;;;2.90;1.00;;;10.20;1.00;;;;;;5011079;28;20258;-72
2022/04/21 00:33:20;;;;;;;1.20;0.67;;;10.20;1.00;;;;;;5011865;28;20266;-72
2022/04/21 00:35:47;;;;;;;1.80;1.03;;;10.20;1.00;;;;;;5013070;28;20254;-73
2022/04/21 00:38:15;;;;;;;1.67;1.10;;;10.10;1.00;;;;;;5010492;28;20655;-75
2022/04/21 00:40:42;;;;;;;3.27;0.70;;;10.10;1.00;;;;;;4993901;28;20263;-72
2022/04/21 00:43:09;;;;;;;2.23;1.20;;;10.10;1.00;;;;;;4999853;28;20213;-71
2022/04/21 00:45:36;;;;;;;1.10;0.90;;;10.10;1.00;;;;;;5012223;28;20208;-71
2022/04/21 00:48:06;;;;;;;1.27;0.87;;;10.10;1.00;;;;;;5012001;28;20204;-71
2022/04/21 00:50:37;;;;;;;2.43;0.97;;;10.20;1.00;;;;;;5012360;28;20201;-71
2022/04/21 00:53:04;;;;;;;3.10;1.30;;;10.20;1.00;;;;;;5009745;28;20291;-72
2022/04/21 00:55:33;;;;;;;3.17;1.33;;;10.30;1.00;;;;;;5012485;28;20216;-72
2022/04/21 00:58:02;;;;;;;2.43;1.43;;;10.20;1.00;;;;;;5012169;28;20290;-71
2022/04/21 01:00:29;;;;;;;1.20;1.07;;;10.20;1.00;;;;;;5013352;28;20266;-71
2022/04/21 01:02:57;;;;;;;1.00;0.90;;;10.20;1.00;;;;;;5011982;28;20208;-70
2022/04/21 01:05:30;;;;;;;1.40;1.07;;;10.20;1.00;;;;;;5011240;28;20243;-70
2022/04/21 01:07:58;;;;;;;1.53;1.03;;;10.30;1.00;;;;;;5013172;28;20283;-70
2022/04/21 01:10:27;;;;;;;1.13;1.03;;;10.30;1.00;;;;;;5005980;28;20212;-71
2022/04/21 01:12:56;;;;;;;1.83;0.70;;;10.20;1.00;;;;;;5012484;28;20208;-72
2022/04/21 01:15:23;;;;;;;1.23;0.90;;;10.20;1.00;;;;;;5011776;28;20254;-72
2022/04/21 01:17:53;;;;;;;1.00;0.90;;;10.20;1.00;;;;;;5010203;28;20282;-73
2022/04/21 01:20:22;;;;;;;1.53;0.97;;;10.10;1.00;;;;;;5012717;28;20642;-71
2022/04/21 01:22:49;;;;;;;2.67;1.20;;;10.20;1.00;;;;;;5010756;28;20204;-71
2022/04/21 01:25:16;;;;;;;1.23;1.13;;;10.10;1.00;;;;;;5012236;28;20321;-82
2022/04/21 01:27:46;;;;;;;2.60;0.90;;;10.10;1.00;;;;;;5011616;28;20683;-72
2022/04/21 01:30:13;;;;;;;2.10;1.13;;;10.10;1.00;;;;;;5007806;28;20208;-73
2022/04/21 01:32:44;;;;;;;0.73;0.70;;;10.10;1.00;;;;;;5001354;28;20200;-84
2022/04/21 01:35:12;;;;;;;1.47;1.20;;;10.00;1.00;;;;;;5009959;28;20204;-84
2022/04/21 01:43:12;;;;;;;0.97;0.90;;;10.10;1.00;;;;;;5009862;28;20254;-78
2022/04/21 01:45:41;;;;;;;1.47;1.23;;;10.10;1.00;;;;;;5012670;28;20213;-72
2022/04/21 01:48:08;;;;;;;1.20;1.00;;;10.00;1.00;;;;;;5002973;28;20213;-73
2022/04/21 01:50:35;;;;;;;1.60;1.03;;;10.00;1.00;;;;;;5012123;28;20212;-72
2022/04/21 01:53:04;;;;;;;1.10;1.00;;;9.90;1.00;;;;;;5012190;28;20212;-72
2022/04/21 01:55:31;;;;;;;2.73;1.20;;;9.80;1.00;;;;;;5011533;28;20209;-82
2022/04/21 01:57:58;;;;;;;1.47;1.00;;;9.80;1.00;;;;;;5009403;28;20236;-87
2022/04/21 02:00:25;;;;;;;2.53;1.37;;;9.80;1.00;;;;;;5012811;28;20259;-88
2022/04/21 02:02:52;;;;;;;1.83;1.27;;;9.80;1.00;;;;;;5002751;28;20213;-75
2022/04/21 02:05:19;;;;;;;1.83;0.90;;;9.80;1.00;;;;;;5006045;28;20212;-73
2022/04/21 02:07:47;;;;;;;1.33;1.13;;;9.80;1.00;;;;;;5008637;28;20290;-77
2022/04/21 02:10:17;;;;;;;3.30;1.13;;;9.80;1.00;;;;;;5010417;28;20668;-77
2022/04/21 02:12:45;;;;;;;1.33;1.23;;;9.90;1.00;;;;;;5010625;28;20259;-79
2022/04/21 02:15:12;;;;;;;2.60;1.13;;;10.00;1.00;;;;;;5011030;28;20569;-74
2022/04/21 02:17:40;;;;;;;1.27;1.03;;;10.00;1.00;;;;;;5002106;28;20240;-76
2022/04/21 02:20:09;;;;;;;1.67;0.70;;;9.90;1.00;;;;;;5011447;28;20230;-76
2022/04/21 02:22:36;;;;;;;1.53;0.60;;;9.90;1.00;;;;;;5009040;28;20591;-80
2022/04/21 02:25:04;;;;;;;1.07;0.97;;;9.90;1.00;;;;;;5011361;28;20737;-83
2022/04/21 02:27:32;;;;;;;3.57;1.27;;;9.80;1.00;;;;;;5005303;28;20304;-78
2022/04/21 02:29:59;;;;;;;1.37;0.90;;;9.70;1.00;;;;;;5010976;28;20254;-73
2022/04/21 02:32:26;;;;;;;2.57;1.10;;;9.90;1.00;;;;;;5009128;28;20671;-73
2022/04/21 02:34:54;;;;;;;1.23;0.90;;;9.90;1.00;;;;;;5010663;28;20204;-77
2022/04/21 02:37:21;;;;;;;1.20;1.10;;;9.90;1.00;;;;;;5009427;28;20335;-76
2022/04/21 02:39:48;;;;;;;1.10;1.00;;;9.90;1.00;;;;;;5010339;28;20215;-75
2022/04/21 02:42:15;;;;;;;2.20;1.03;;;9.80;1.00;;;;;;5009602;28;20247;-73
2022/04/21 02:44:44;;;;;;;1.20;1.10;;;9.80;1.00;;;;;;5010641;28;20224;-73
2022/04/21 02:47:11;;;;;;;1.10;1.00;;;9.80;1.00;;;;;;5008732;28;20238;-76
2022/04/21 02:49:40;;;;;;;1.37;0.90;;;9.70;1.00;;;;;;5010984;28;20208;-73
2022/04/21 02:52:09;;;;;;;1.03;0.87;;;9.80;1.00;;;;;;5009430;28;20231;-79
2022/04/21 02:57:21;;;;;;;1.17;1.07;;;9.90;1.00;;;;;;5019280;28;20239;-75
2022/04/21 02:59:51;;;;;;;1.60;0.80;;;9.90;1.00;;;;;;5008731;28;20211;-75
2022/04/21 03:02:18;;;;;;;1.33;1.00;;;9.90;1.00;;;;;;5008524;28;20262;-74
2022/04/21 03:04:46;;;;;;;1.57;1.03;;;9.80;1.00;;;;;;4991542;28;20213;-72
2022/04/21 03:07:14;;;;;;;1.40;1.00;;;9.80;1.00;;;;;;5000432;28;20225;-73
2022/04/21 03:09:41;;;;;;;3.13;1.27;;;9.90;1.00;;;;;;5011289;28;20572;-85
2022/04/21 03:12:09;;;;;;;2.43;1.00;;;10.00;1.00;;;;;;5010136;28;20200;-88
2022/04/21 03:14:37;;;;;;;1.60;1.20;;;10.00;1.00;;;;;;5007629;28;20267;-77
2022/04/21 03:17:07;;;;;;;1.37;1.13;;;9.90;1.00;;;;;;5007278;28;20290;-74
2022/04/21 03:19:34;;;;;;;1.47;1.00;;;9.90;1.00;;;;;;5010094;28;20257;-77
2022/04/21 03:24:46;;;;;;;2.57;1.40;;;9.90;1.00;;;;;;4998803;28;20274;-72
2022/04/21 03:27:13;;;;;;;1.23;1.13;;;9.90;1.00;;;;;;5012499;28;20691;-72
2022/04/21 03:29:40;;;;;;;1.00;1.00;;;9.90;1.00;;;;;;5017598;28;20605;-71
2022/04/21 03:32:11;;;;;;;1.30;1.20;;;9.90;1.00;;;;;;5014982;28;20230;-71
2022/04/21 03:34:41;;;;;;;1.03;0.80;;;9.70;1.00;;;;;;5017136;28;20208;-77
2022/04/21 03:37:08;;;;;;;0.90;0.90;;;9.70;1.00;;;;;;5016347;28;20291;-74
2022/04/21 03:39:37;;;;;;;1.53;1.43;;;9.70;1.00;;;;;;5013373;28;20216;-72
2022/04/21 03:42:04;;;;;;;2.50;1.30;;;9.70;1.00;;;;;;5015428;28;20767;-73
2022/04/21 03:44:32;;;;;;;1.50;1.10;;;9.80;1.00;;;;;;5016625;28;20208;-72
2022/04/21 03:46:59;;;;;;;1.37;1.23;;;9.70;1.00;;;;;;5017871;28;20211;-73
2022/04/21 03:49:29;;;;;;;1.97;1.40;;;9.70;1.00;;;;;;5014764;28;20278;-74
2022/04/21 03:51:56;;;;;;;1.43;1.10;;;9.80;1.00;;;;;;5015548;28;20258;-72
2022/04/21 03:54:23;;;;;;;1.30;1.20;;;9.90;1.00;;;;;;5014440;28;20262;-74
2022/04/21 03:56:51;;;;;;;1.30;1.20;;;10.00;1.00;;;;;;5017204;28;20255;-72
2022/04/21 03:59:18;;;;;;;1.57;1.47;;;9.90;1.00;;;;;;5016509;28;20200;-73
2022/04/21 04:01:45;;;;;;;1.40;1.17;;;9.70;1.00;;;;;;5012270;28;20196;-74
2022/04/21 04:04:12;;;;;;;1.67;1.37;;;9.70;1.00;;;;;;5014765;28;20208;-76
2022/04/21 04:12:12;;;;;;;5.37;2.27;;;9.80;1.00;;;;;;5014800;28;20235;-73
2022/04/21 04:14:39;;;;;;;1.27;1.17;;;9.80;1.00;;;;;;5016437;28;20754;-73
2022/04/21 04:17:08;;;;;;;4.70;1.60;;;9.80;1.00;;;;;;5015021;28;20235;-74
2022/04/21 04:19:35;;;;;;;1.50;1.40;;;9.90;1.00;;;;;;5016768;28;20290;-76
2022/04/21 04:22:04;;;;;;;3.23;1.53;;;10.00;1.00;;;;;;5016714;28;20204;-72
2022/04/21 04:24:31;;;;;;;2.17;1.70;;;9.90;1.00;;;;;;5015877;28;20204;-72
2022/04/21 04:26:58;;;;;;;2.27;2.07;;;9.90;1.00;;;;;;5011637;28;20210;-74
2022/04/21 04:29:25;;;;;;;2.07;1.60;;;9.90;1.00;;;;;;5017057;28;20621;-81
2022/04/21 04:31:53;;;;;;;2.23;1.77;;;9.90;1.00;;;;;;5013273;28;20625;-81
2022/04/21 04:34:20;;;;;;;2.60;2.10;;;9.80;1.00;;;;;;5012374;28;20208;-72
2022/04/21 04:36:47;;;;;;;1.67;1.57;;;9.90;1.00;;;;;;5011679;28;20259;-72
2022/04/21 04:39:17;;;;;;;2.27;1.80;;;9.90;1.00;;;;;;5012829;28;20239;-72
2022/04/21 04:44:29;;;;;;;1.87;1.77;;;9.90;1.00;;;;;;5005654;28;20328;-72
2022/04/21 04:46:55;;;;;;;4.70;1.90;;;10.00;1.00;;;;;;5008322;28;20245;-76
2022/04/21 04:49:23;;;;;;;2.10;1.90;;;10.00;1.00;;;;;;5013318;28;20210;-72
2022/04/21 04:51:50;;;;;;;2.73;1.80;;;9.90;1.00;;;;;;5009127;28;20223;-72
2022/04/21 04:54:19;;;;;;;3.50;2.00;;;9.80;1.00;;;;;;5012664;28;20208;-78
2022/04/21 04:56:47;;;;;;;2.10;1.90;;;9.90;1.00;;;;;;5010942;28;20282;-72
2022/04/21 04:59:14;;;;;;;1.60;1.50;;;9.90;1.00;;;;;;5028093;28;20227;-75
2022/04/21 05:01:43;;;;;;;2.93;1.70;;;10.00;1.00;;;;;;5015859;28;20254;-72
2022/04/21 05:04:12;;;;;;;2.80;1.53;;;9.90;1.00;;;;;;5030695;28;20206;-75
2022/04/21 05:06:40;;;;;;;1.20;1.10;;;9.80;1.00;;;;;;5012007;28;20208;-72
2022/04/21 05:09:10;;;;;;;2.27;1.90;;;9.70;1.00;;;;;;5012721;28;20624;-76
2022/04/21 05:11:38;;;;;;;2.20;2.00;;;9.90;1.00;;;;;;5008463;28;20601;-72
2022/04/21 05:14:07;;;;;;;1.80;1.70;;;9.80;1.00;;;;;;5007162;28;20262;-76
2022/04/21 05:16:36;;;;;;;1.93;1.73;;;9.80;1.00;;;;;;5010907;28;20597;-71
2022/04/21 05:19:03;;;;;;;2.07;1.73;;;9.80;1.00;;;;;;5012716;28;20818;-71
2022/04/21 05:21:31;;;;;;;2.00;1.80;;;9.90;1.00;;;;;;5013159;28;20212;-72
2022/04/21 05:24:00;;;;;;;4.20;2.40;;;9.90;1.00;;;;;;5009310;28;20196;-71
2022/04/21 05:26:28;;;;;;;2.00;1.70;;;10.00;1.00;;;;;;5006902;28;20204;-71
2022/04/21 05:29:00;;;;;;;3.40;2.47;;;9.90;1.00;;;;;;5011062;28;20240;-78
2022/04/21 05:31:27;;;;;;;2.20;2.00;;;9.80;1.00;;;;;;5007468;28;20208;-78
2022/04/21 05:33:55;;;;;;;1.80;1.70;;;9.80;1.00;;;;;;5012793;28;20295;-72
2022/04/21 05:36:22;;;;;;;1.90;1.70;;;9.90;1.00;;;;;;5005483;28;20204;-74
2022/04/21 05:38:51;;;;;;;2.37;2.17;;;10.00;1.00;;;;;;5010226;28;20224;-72
2022/04/21 05:41:19;;;;;;;3.47;1.67;;;10.00;1.00;;;;;;4996752;28;20201;-74
2022/04/21 05:43:50;;;;;;;2.13;1.93;;;9.90;1.00;;;;;;4997974;28;20205;-72
2022/04/21 05:46:19;;;;;;;2.67;2.47;;;9.90;1.00;;;;;;5009292;28;20208;-77
2022/04/21 05:48:46;;;;;;;2.47;2.27;;;9.90;1.00;;;;;;5004372;28;20201;-72
2022/04/21 05:51:15;;;;;;;3.23;2.90;;;10.10;1.00;;;;;;4997588;28;20258;-73
2022/04/21 05:53:49;;;;;;;3.13;2.83;;;10.10;1.00;;;;;;5011969;28;20274;-78
2022/04/21 05:56:16;;;;;;;2.70;2.50;;;10.10;1.00;;;;;;5007988;28;20209;-75
2022/04/21 05:58:44;;;;;;;3.10;2.50;;;9.90;1.00;;;;;;5011793;28;20785;-74
2022/04/21 06:01:11;;;;;;;2.77;2.57;;;9.90;1.00;;;;;;5011460;28;20204;-74
2022/04/21 06:03:41;;;;;;;3.80;2.37;;;10.00;1.00;;;;;;5011336;28;20628;-74
2022/04/21 06:06:09;;;;;;;3.70;3.40;;;10.00;1.00;;;;;;5011189;28;20251;-70
2022/04/21 06:08:36;;;;;;;3.10;2.83;;;10.00;1.00;;;;;;5012175;28;20278;-71
2022/04/21 06:11:03;;;;;;;3.70;3.40;;;10.10;1.00;;;;;;5023051;28;20200;-69
2022/04/21 06:13:31;;;;;;;2.40;2.20;;;10.10;1.00;;;;;;5009127;28;20216;-81
2022/04/21 06:15:58;;;;;;;2.30;2.10;;;9.90;1.00;;;;;;5008687;28;20663;-68
2022/04/21 06:18:26;;;;;;;2.80;2.60;;;9.90;1.00;;;;;;5011477;28;20228;-73
2022/04/21 06:20:55;;;;;;;2.27;2.07;;;9.90;1.00;;;;;;5011564;28;20282;-73
2022/04/21 06:23:22;;;;;;;2.63;2.43;;;10.40;1.00;;;;;;5009722;28;20204;-75
2022/04/21 06:25:51;;;;;;;2.90;2.70;;;10.40;1.00;;;;;;5011726;28;20637;-76
2022/04/21 06:28:18;;;;;;;2.70;2.50;;;10.30;1.00;;;;;;5009532;28;20212;-75
2022/04/21 06:30:45;;;;;;;2.23;1.63;;;10.20;1.00;;;;;;5010873;28;20204;-76
2022/04/21 06:33:12;;;;;;;2.53;2.10;;;10.00;1.00;;;;;;5009954;28;20204;-70
2022/04/21 06:35:39;;;;;;;2.40;2.17;;;10.10;1.00;;;;;;5006392;28;20200;-71
2022/04/21 06:38:08;;;;;;;2.33;2.13;;;10.10;1.00;;;;;;4991546;28;20702;-72
2022/04/21 06:40:35;;;;;;;2.57;2.37;;;10.10;1.00;;;;;;4997550;28;20212;-73
2022/04/21 06:43:03;;;;;;;2.37;1.90;;;9.90;1.00;;;;;;5003804;28;20381;-73
2022/04/21 06:48:14;;;;;;;2.50;2.30;;;10.00;1.00;;;;;;5009082;28;20207;-72
2022/04/21 06:50:41;;;;;;;2.93;2.73;;;10.20;1.00;;;;;;5009622;28;20262;-73
2022/04/21 06:53:11;;;;;;;2.90;2.70;;;10.20;1.00;;;;;;5006610;28;20267;-70
2022/04/21 06:55:37;;;;;;;2.07;1.93;;;10.20;1.00;;;;;;5007939;28;20197;-73
2022/04/21 06:58:04;;;;;;;2.20;1.90;;;10.10;1.00;;;;;;5010517;28;20290;-70
2022/04/21 07:00:31;;;;;;;2.70;2.50;;;10.10;1.00;;;;;;5011034;28;20216;-71
2022/04/21 07:02:59;;;;;;;2.43;2.23;;;10.20;1.00;;;;;;5010691;28;20208;-69
2022/04/21 07:05:27;;;;;;;2.60;2.40;;;10.20;1.00;;;;;;5004152;28;20282;-69
2022/04/21 07:07:54;;;;;;;2.77;2.47;;;10.10;1.00;;;;;;4999193;28;20754;-71
2022/04/21 07:10:23;;;;;;;3.67;3.30;;;10.20;1.00;;;;;;5005689;28;20216;-75
2022/04/21 07:12:50;;;;;;;2.83;2.63;;;10.10;1.00;;;;;;5004677;28;20594;-74
2022/04/21 07:15:18;;;;;;;3.20;2.90;;;10.10;1.00;;;;;;5009103;28;20614;-69
2022/04/21 07:17:45;;;;;;;3.00;2.67;;;10.20;1.00;;;;;;5010459;28;20204;-71
2022/04/21 07:20:13;;;;;;;3.27;2.97;;;10.20;1.00;;;;;;5006095;28;20688;-76
2022/04/21 07:22:40;;;;;;;2.60;2.40;;;10.20;1.00;;;;;;5002578;28;20201;-76
2022/04/21 07:25:09;;;;;;;2.93;2.70;;;10.20;1.00;;;;;;5008359;28;20676;-70
2022/04/21 07:27:38;;;;;;;3.47;2.37;;;10.10;1.00;;;;;;5008865;28;20200;-74
2022/04/21 07:30:08;;;;;;;3.47;2.30;;;10.20;1.00;;;;;;5006202;28;20219;-69
2022/04/21 07:32:35;;;;;;;3.20;2.90;;;10.30;1.00;;;;;;5007936;28;20210;-69
2022/04/21 07:35:02;;;;;;;4.97;2.70;;;10.50;1.00;;;;;;5010825;28;20204;-70
2022/04/21 07:37:30;;;;;;;2.77;2.57;;;10.50;1.00;;;;;;5009284;28;20211;-72
2022/04/21 07:39:58;;;;;;;2.60;2.40;;;10.60;1.00;;;;;;5006721;28;20241;-70
2022/04/21 07:42:25;;;;;;;3.53;2.70;;;10.50;1.00;;;;;;4990941;28;20213;-71
2022/04/21 07:44:53;;;;;;;2.37;2.13;;;10.60;1.00;;;;;;5005182;28;20212;-72
2022/04/21 07:47:20;;;;;;;2.50;2.30;;;10.70;1.00;;;;;;5005336;28;20251;-72
2022/04/21 07:49:48;;;;;;;2.83;2.63;;;10.60;1.00;;;;;;5010488;28;20247;-71
2022/04/21 07:55:15;;;;;;;3.87;2.63;;;10.60;1.00;;;;;;5004322;28;20294;-73
2022/04/21 07:57:43;;;;;;;2.90;2.17;;;10.80;1.00;;;;;;5002992;28;20209;-72
2022/04/21 08:00:14;;;;;;;2.17;2.00;;;10.80;1.00;;;;;;5003998;28;20329;-72
2022/04/21 08:02:42;;;;;;;2.30;2.10;;;10.80;1.00;;;;;;5004348;28;20204;-73
2022/04/21 08:05:10;;;;;;;2.37;1.90;;;10.70;1.00;;;;;;5006817;28;20947;-72
2022/04/21 08:07:38;;;;;;;2.90;1.97;;;10.70;1.00;;;;;;4997551;28;20212;-72
2022/04/21 08:10:06;;;;;;;2.27;2.00;;;10.60;1.00;;;;;;5009549;28;20212;-71
2022/04/21 08:12:41;;;;;;;2.37;2.10;;;10.60;1.00;;;;;;5009645;28;20200;-72
2022/04/21 08:15:08;;;;;;;2.37;2.17;;;10.60;1.00;;;;;;5010743;28;20215;-72
2022/04/21 08:17:38;;;;;;;3.80;2.10;;;10.70;1.00;;;;;;4998061;28;20216;-72
2022/04/21 08:20:06;;;;;;;2.40;1.97;;;10.70;1.00;;;;;;5012262;28;20616;-72
2022/04/21 08:22:33;;;;;;;2.00;1.80;;;10.70;1.00;;;;;;5013457;28;20200;-72
2022/04/21 08:33:16;;;;;;;1.90;1.73;;;10.60;1.00;;;;;;5006012;28;20227;-73
2022/04/21 08:35:44;;;;;;;2.07;1.90;;;10.60;1.00;;;;;;5011887;28;20207;-72
2022/04/21 08:38:11;;;;;;;1.50;1.40;;;10.80;1.00;;;;;;5006324;28;20295;-73
2022/04/21 08:40:40;;;;;;;3.17;2.07;;;10.90;1.00;;;;;;5010169;28;20274;-73
2022/04/21 08:43:15;;;;;;;2.87;1.80;;;10.90;1.00;;;;;;5012204;28;20266;-73
2022/04/21 08:45:44;;;;;;;2.03;1.93;;;11.00;1.00;;;;;;5002223;28;20259;-74
2022/04/21 08:48:12;;;;;;;2.33;2.20;;;10.90;1.00;;;;;;5009587;28;20291;-75
2022/04/21 08:50:41;;;;;;;2.27;2.07;;;11.00;1.00;;;;;;5008846;28;20212;-74
2022/04/21 08:53:08;;;;;;;1.90;1.80;;;10.90;1.00;;;;;;5003128;28;20286;-73
2022/04/21 08:55:36;;;;;;;2.10;1.90;;;10.90;1.00;;;;;;5008034;28;20289;-72
2022/04/21 08:58:03;;;;;;;2.73;2.07;;;10.90;1.00;;;;;;5004153;28;20266;-72
2022/04/21 09:00:31;;;;;;;3.73;1.73;;;10.90;1.00;;;;;;5003515;28;20329;-72
2022/04/21 09:02:59;;;;;;;2.80;2.30;;;10.80;1.00;;;;;;5010305;28;20287;-72
2022/04/21 09:05:28;;;;;;;2.40;2.20;;;10.80;1.00;;;;;;5000279;28;20216;-72
2022/04/21 09:07:58;;;;;;;2.30;2.10;;;11.00;1.00;;;;;;5004523;28;20758;-73
2022/04/21 09:10:26;;;;;;;2.50;2.30;;;10.80;1.00;;;;;;5003214;28;20212;-73
2022/04/21 09:12:56;;;;;;;3.27;2.97;;;10.80;1.00;;;;;;5005861;28;20208;-72
2022/04/21 09:15:24;;;;;;;2.30;2.10;;;11.00;1.00;;;;;;5011286;28;20243;-72
2022/04/21 09:17:54;;;;;;;2.30;2.10;;;10.90;1.00;;;;;;5012428;28;20204;-73
2022/04/21 09:20:23;;;;;;;2.63;2.43;;;10.90;1.00;;;;;;4997701;28;20233;-72
2022/04/21 09:22:54;;;;;;;2.40;2.20;;;10.90;1.00;;;;;;4992693;28;20205;-72
2022/04/21 09:25:24;;;;;;;2.93;2.50;;;11.00;1.00;;;;;;4992761;28;20215;-74
2022/04/21 09:27:52;;;;;;;2.87;2.20;;;11.00;1.00;;;;;;4993222;28;20201;-73
2022/04/21 09:30:19;;;;;;;2.90;2.60;;;11.10;1.00;;;;;;4991988;28;20680;-72
2022/04/21 09:32:54;;;;;;;2.27;2.07;;;11.10;1.00;;;;;;4992957;28;20209;-72
2022/04/21 09:35:22;;;;;;;2.70;1.37;;;11.00;1.00;;;;;;4996901;28;20671;-73
2022/04/21 09:37:51;;;;;;;2.47;2.27;;;11.00;1.00;;;;;;5012611;28;20208;-72
2022/04/21 09:40:20;;;;;;;2.20;2.00;;;11.20;1.00;;;;;;5012159;28;20290;-73
2022/04/21 09:42:56;;;;;;;2.93;1.70;;;11.60;1.00;;;;;;5012277;28;20208;-72
2022/04/21 09:48:33;;;;;;;2.20;2.03;;;12.40;1.00;;;;;;4952718;29;20213;-72
2022/04/21 09:51:08;;;;;;;2.00;1.70;;;12.70;99.90;;;;;;4951877;29;20666;-72
2022/04/21 09:53:50;;;;;;;1.30;1.20;;;12.90;99.90;;;;;;4982221;28;20266;-72
2022/04/21 09:56:17;;;;;;;1.80;1.60;;;12.80;99.90;;;;;;5011805;28;20302;-72
2022/04/21 09:58:47;;;;;;;1.30;1.20;;;12.40;99.90;;;;;;5008617;28;20626;-72
2022/04/21 10:01:14;;;;;;;2.87;1.07;;;12.20;99.90;;;;;;5011901;28;20204;-72
2022/04/21 10:03:43;;;;;;;1.50;1.40;;;12.20;99.90;;;;;;5012115;28;20204;-72
2022/04/21 10:06:11;;;;;;;1.40;1.30;;;12.30;99.90;;;;;;5010661;28;20295;-72
2022/04/21 10:08:41;;;;;;;1.70;1.60;;;12.30;99.90;;;;;;5012213;28;20210;-72
2022/04/21 10:11:09;;;;;;;1.63;1.40;;;12.40;99.90;;;;;;5011684;28;20208;-72
2022/04/21 10:13:36;;;;;;;1.40;1.30;;;12.40;99.90;;;;;;5012316;28;20210;-72
2022/04/21 10:16:06;;;;;;;1.13;1.03;;;12.20;99.90;;;;;;5012210;28;20679;-72
2022/04/21 10:18:34;;;;;;;3.20;1.30;;;12.00;99.90;;;;;;5012124;28;20208;-73
2022/04/21 10:21:03;;;;;;;2.00;1.37;;;11.90;99.90;;;;;;5012014;28;20212;-72
2022/04/21 10:23:31;;;;;;;1.67;1.42;;;11.90;99.90;;;;;;5011494;28;20676;-72
2022/04/21 10:26:03;;;;;;;1.40;1.20;;;11.90;99.90;;;;;;5011885;28;20262;-72
2022/04/21 10:28:41;;;;;;;1.47;1.37;;;11.90;1.00;;;;;;5010396;28;20282;-71
2022/04/21 10:31:35;;;;;;;1.90;1.10;;;11.90;99.90;;;;;;5006172;28;20235;-72
2022/04/21 10:34:04;;;;;;;2.40;1.37;;;11.90;99.90;;;;;;4992264;28;20208;-72
2022/04/21 10:36:41;;;;;;;1.10;1.00;;;12.00;99.90;;;;;;5007008;28;20218;-72
2022/04/21 10:39:27;;;;;;;1.60;1.50;;;11.90;99.90;;;;;;4991646;28;20232;-71
2022/04/21 10:42:18;;;;;;;1.87;1.27;;;11.90;99.90;;;;;;4995431;28;20272;-70
2022/04/21 10:44:50;;;;;;;1.63;1.10;;;11.90;99.90;;;;;;5002445;28;20255;-72
2022/04/21 10:47:37;;;;;;;2.00;1.40;;;11.90;99.90;;;;;;5005127;28;20205;-70
2022/04/21 10:50:15;;;;;;;1.53;1.20;;;11.80;1.00;;;;;;5011553;28;20208;-70
2022/04/21 10:58:49;;;;;;;1.40;1.23;;;11.70;1.00;;;;;;5001490;28;20255;-70
2022/04/21 11:01:22;;;;;;;1.20;1.10;;;11.50;1.00;;;;;;4991275;28;20621;-70
2022/04/21 11:04:21;;;;;;;1.30;1.10;;;11.40;1.00;;;;;;4991235;28;20244;-70
2022/04/21 11:06:51;;;;;;;2.83;1.33;;;11.40;1.00;;;;;;5009512;28;20230;-70
2022/04/21 11:09:42;;;;;;;1.00;0.90;;;11.30;1.00;;;;;;5009244;28;20208;-69
2022/04/21 11:12:11;;;;;;;1.43;1.33;;;11.30;1.00;;;;;;5001234;28;20275;-71
2022/04/21 11:14:40;;;;;;;1.70;1.40;;;11.40;1.00;;;;;;5007652;28;20204;-70
2022/04/21 11:17:07;;;;;;;1.70;1.33;;;11.40;1.00;;;;;;5004284;28;20212;-71
2022/04/21 11:19:40;;;;;;;1.37;1.27;;;11.30;1.00;;;;;;5009180;28;20239;-72
2022/04/21 11:22:08;;;;;;;4.93;1.87;;;11.30;1.00;;;;;;4995291;28;20213;-71
2022/04/21 11:25:01;;;;;;;1.40;1.30;;;11.40;1.00;;;;;;4990919;28;20587;-71
2022/04/21 11:27:29;;;;;;;1.53;1.43;;;11.30;1.00;;;;;;4990823;28;20257;-71
2022/04/21 11:30:00;;;;;;;1.53;1.43;;;11.40;1.00;;;;;;4991690;28;20208;-72
2022/04/21 11:32:27;;;;;;;4.03;1.90;;;11.40;1.00;;;;;;4991177;28;20219;-71
2022/04/21 11:35:04;;;;;;;1.77;1.63;;;11.50;1.00;;;;;;4996141;28;20258;-71
2022/04/21 11:37:51;;;;;;;4.10;2.07;;;11.40;1.00;;;;;;5010352;28;20736;-71
2022/04/21 11:40:30;;;;;;;2.40;2.20;;;11.50;1.00;;;;;;5010396;28;20240;-72
2022/04/21 11:42:59;;;;;;;2.43;2.23;;;11.50;1.00;;;;;;5012552;28;20212;-71
2022/04/21 11:45:28;;;;;;;3.60;2.00;;;11.50;1.00;;;;;;5014568;28;20212;-71
2022/04/21 11:47:55;;;;;;;3.10;2.00;;;11.40;1.00;;;;;;5014502;28;20207;-72
2022/04/21 11:50:29;;;;;;;2.70;1.60;;;11.40;1.00;;;;;;5014250;28;20258;-72
2022/04/21 11:52:57;;;;;;;2.63;2.43;;;11.40;1.00;;;;;;5014360;28;20204;-72
2022/04/21 11:55:26;;;;;;;1.97;1.73;;;11.50;1.00;;;;;;5014288;28;20204;-72
2022/04/21 11:57:53;;;;;;;1.63;1.53;;;11.60;1.00;;;;;;5011136;28;20212;-72
2022/04/21 12:08:44;;;;;;;1.73;1.63;;;11.60;1.00;;;;;;5014411;28;20195;-72
2022/04/21 12:11:11;;;;;;;1.70;1.47;;;11.70;1.00;;;;;;5013612;28;20204;-73
2022/04/21 12:13:38;;;;;;;1.30;1.20;;;11.80;1.00;;;;;;5014131;28;20204;-72
2022/04/21 12:16:06;;;;;;;2.27;1.93;;;11.80;1.00;;;;;;5014258;28;20628;-72
2022/04/21 12:18:46;;;;;;;2.40;1.57;;;11.80;1.00;;;;;;5014330;28;20211;-72
2022/04/21 12:21:18;;;;;;;1.67;1.57;;;11.80;1.00;;;;;;5013503;28;20235;-72
2022/04/21 12:23:46;;;;;;;2.10;1.90;;;11.80;1.00;;;;;;5013910;28;20729;-72
2022/04/21 12:26:13;;;;;;;2.58;2.38;;;11.90;1.00;;;;;;5013627;28;20672;-73
2022/04/21 12:28:49;;;;;;;2.10;1.90;;;12.00;1.00;;;;;;5014043;28;20208;-72
2022/04/21 12:31:19;;;;;;;1.60;1.50;;;12.00;1.00;;;;;;5013329;28;20208;-72
2022/04/21 12:33:49;;;;;;;2.97;1.97;;;12.00;1.00;;;;;;5013823;28;20236;-72
2022/04/21 12:36:27;;;;;;;2.47;1.80;;;12.00;1.00;;;;;;5009687;28;20642;-72
2022/04/21 12:38:57;;;;;;;2.20;2.00;;;12.00;1.00;;;;;;4994316;28;20208;-72
2022/04/21 12:41:24;;;;;;;2.90;2.63;;;12.00;1.00;;;;;;4993813;28;20240;-72
2022/04/21 12:43:51;;;;;;;2.22;2.03;;;12.00;1.00;;;;;;4993602;28;20209;-72
2022/04/21 12:46:20;;;;;;;3.83;3.40;;;12.00;1.00;;;;;;4993659;28;20255;-72
2022/04/21 12:48:50;;;;;;;5.90;4.40;;;12.10;1.00;;;;;;4994412;28;20205;-72
2022/04/21 12:51:22;;;;;;;11.27;9.80;;;12.10;1.00;;;;;;4993745;28;20220;-73
2022/04/21 12:53:57;;;;;;;13.27;9.23;;;12.00;1.00;;;;;;4992858;28;20669;-73
2022/04/21 12:56:34;;;;;;;4.03;3.63;;;12.10;1.00;;;;;;4993706;28;20211;-73
2022/04/21 12:59:02;;;;;;;2.47;2.27;;;12.30;99.90;;;;;;4994108;28;20204;-73
2022/04/21 13:01:29;;;;;;;3.10;2.83;;;12.40;99.90;;;;;;4993351;28;20802;-73
2022/04/21 13:03:59;;;;;;;2.17;2.00;;;12.50;99.90;;;;;;4993876;28;20208;-72
2022/04/21 13:06:29;;;;;;;2.90;1.53;;;12.60;99.90;;;;;;5009621;28;20588;-72
2022/04/21 13:08:57;;;;;;;2.47;2.23;;;12.60;99.90;;;;;;5013188;28;20746;-73
2022/04/21 13:11:24;;;;;;;3.50;2.70;;;12.60;99.90;;;;;;5012718;28;20294;-73
2022/04/21 13:13:53;;;;;;;4.13;3.60;;;12.70;99.90;;;;;;5012468;28;20251;-73
2022/04/21 13:16:21;;;;;;;4.10;3.15;;;12.70;99.90;;;;;;5012771;28;20598;-72
2022/04/21 13:18:47;;;;;;;2.63;2.43;;;12.80;99.90;;;;;;5012937;28;20255;-73
2022/04/21 13:24:07;;;;;;;2.60;2.40;;;12.60;99.90;;;;;;5002817;28;20204;-72
2022/04/21 13:26:34;;;;;;;2.72;2.50;;;12.40;99.90;;;;;;5013067;28;20214;-72
2022/04/21 13:29:01;;;;;;;4.32;3.58;;;12.40;99.90;;;;;;5012784;28;20311;-72
2022/04/21 13:34:13;;;;;;;5.37;4.17;;;12.30;99.90;;;;;;5012435;28;20585;-74
2022/04/21 13:36:40;;;;;;;2.37;2.17;;;12.30;99.90;;;;;;5011862;28;20208;-72
2022/04/21 13:39:08;;;;;;;2.53;2.30;;;12.30;99.90;;;;;;5012873;28;20204;-73
2022/04/21 13:41:36;;;;;;;2.90;2.60;;;12.40;99.90;;;;;;5012856;28;20235;-73
2022/04/21 13:44:02;;;;;;;2.88;2.58;;;12.50;99.90;;;;;;5012508;28;20212;-72
2022/04/21 13:46:30;;;;;;;2.90;2.30;;;12.50;99.90;;;;;;5012186;28;20204;-72
2022/04/21 13:48:57;;;;;;;3.50;2.00;;;12.50;99.90;;;;;;5012509;28;20215;-75
2022/04/21 13:51:25;;;;;;;2.63;2.43;;;12.40;99.90;;;;;;5012336;28;20207;-72
2022/04/21 13:53:52;;;;;;;3.10;2.40;;;12.30;99.90;;;;;;5012602;28;20215;-72
2022/04/21 13:56:22;;;;;;;2.90;2.40;;;12.30;99.90;;;;;;5011861;28;20219;-72
2022/04/21 13:58:49;;;;;;;2.20;2.00;;;12.30;99.90;;;;;;5012580;28;20204;-72
2022/04/21 14:01:16;;;;;;;2.35;2.15;;;12.30;99.90;;;;;;5011709;28;20362;-74
2022/04/21 14:03:44;;;;;;;2.15;1.95;;;12.50;99.90;;;;;;5012530;28;20258;-74